Архив погоды в Колымской

Метеограмма Колымская
Вторник, 19 Июня
Время местн. Темп Ветер Видим Явления Облачность нижн/средн/верх Атм. давл. Влжн Точка росы ВНГО R Сост. почвы Tg s
Напр Скр Прв ур.ст ур.м изм
07:00 +11.1° штиль 0 - 50 км - преимущественно облачно 687 759 +0.2 65% +4.8° - 0 Влажная (без луж) - -
04:00 - +1.7° штиль 0 - - - - 687 761 +0.3 98% +1.4° - - - - -
01:00 +4° штиль 0 - более 50 км - переменная облачность 686 760 +0.5 89% +2.3° более 2.5 км - - - -
Понедельник, 18 Июня
Время местн. Темп Ветер Видим Явления Облачность нижн/средн/верх Атм. давл. Влжн Точка росы ВНГО R Сост. почвы Tg s
Напр Скр Прв ур.ст ур.м изм
22:00 - +8.5° В 1 - - - - 686 758 +0.9 70% +3.4° - - - - -
19:00 +18.1° Ю 3 - более 50 км - преимущественно облачно 685 755 +0.4 34% +1.9° более 2.5 км 0 - - -
16:00 - +20° З 2 - - - - 684 754 -0.6 32% +2.7° - - - - -
13:00 +18° Ю-З 2 - более 50 км - переменная облачность 685 755 -1 39% +3.8° 1.5 км - - - -
10:00 - +12.5° З,С-З 1 - - - - 686 758 -0.2 61% +5.1° - - - - -
07:00 +9° З 1 - 50 км - облачно 686 759 +0.2 77% +5.1° 1.5 км 0 Сырая (есть малые или большие лужи) - -
04:00 - +0.9° штиль 0 - - - - 686 761 +0.2 100% +0.9° - - - - -
01:00 -0.4° В 1 - более 50 км - облачно 686 761 +0.2 99% -0.5° 1.5 км - - - -
Воскресенье, 17 Июня
Время местн. Темп Ветер Видим Явления Облачность нижн/средн/верх Атм. давл. Влжн Точка росы ВНГО R Сост. почвы Tg s
Напр Скр Прв ур.ст ур.м изм
22:00 - +5.4° штиль 0 - - - - 686 759 +0.8 90% +3.9° - - - - -
19:00 +12.3° З 2 - 50 км - преимущественно облачно 685 756 +0.5 59% +4.5° 1.5 км 0 - - -
16:00 - +13.5° Ю,Ю-З 1 - - - - 685 756 -0.2 54% +4.3° - - - - -
13:00 +12.5° Ю 2 - 50 км - облачно 685 756 0 56% +4° 1.5 км - - - -
10:00 - +11.3° З 2 - - - - 685 757 +0.1 62% +4.3° - - - - -
07:00 +8.2° З,С-З 1 - 20 км осадки вдали станции облачно 685 757 +0.4 75% +4° 1.5 км 0 Сырая (есть малые или большие лужи) +7° -
04:00 - +6° штиль 0 - - - - 685 758 +0.4 89% +4.3° - - - - -
01:00 +6.6° Ю,Ю-В 1 - более 50 км - облачно 684 757 +0.3 83% +3.9° 1.5 км - - - -
Суббота, 16 Июня
Время местн. Темп Ветер Видим Явления Облачность нижн/средн/верх Атм. давл. Влжн Точка росы ВНГО R Сост. почвы Tg s
Напр Скр Прв ур.ст ур.м изм
22:00 - +7.5° Ю,Ю-В 2 - - - - 684 756 +0.7 80% +4.2° - - - - -
19:00 +10.2° Ю-В 1 - более 50 км - облачно 683 755 +0.9 64% +3.7° 1.5 км 0 - - -
16:00 - +13.3° Ю-З 2 - - - - 682 753 -0.6 52% +3.7° - - - - -
13:00 +11.9° З 1 - 20 км ливневый дождь облачно 683 754 -0.7 67% +6° 1.5 км - - - -
10:00 - +10.9° З 2 - - - - 684 755 -0.7 63% +4.1° - - - - -
07:00 +8.4° З 1 - более 50 км - преимущественно облачно 684 757 -0.7 74% +4° 1.5 км 0.9 Сырая (есть малые или большие лужи) +4° -
04:00 - +3.1° штиль 0 - - - - 685 759 -0.7 97% +2.7° - - - - -